createdAt,value
2018-06-16T00:01:02.226Z,4.20
2018-06-16T00:03:32.623Z,3.60
2018-06-16T00:06:02.989Z,3.87
2018-06-16T00:08:33.447Z,3.50
2018-06-16T00:11:03.440Z,3.50
2018-06-16T00:13:33.878Z,3.60
2018-06-16T00:16:04.860Z,3.87
2018-06-16T00:18:35.975Z,4.00
2018-06-16T00:21:06.139Z,4.17
2018-06-16T00:23:37.063Z,3.63
2018-06-16T00:26:09.194Z,3.47
2018-06-16T00:28:43.469Z,4.03
2018-06-16T00:31:14.244Z,3.47
2018-06-16T00:33:56.868Z,3.67
2018-06-16T00:36:30.384Z,3.80
2018-06-16T00:39:03.342Z,3.43
2018-06-16T00:41:35.137Z,3.93
2018-06-16T00:44:08.560Z,3.73
2018-06-16T00:46:41.760Z,4.07
2018-06-16T00:49:11.865Z,3.83
2018-06-16T00:51:43.073Z,3.70
2018-06-16T00:54:12.915Z,3.40
2018-06-16T00:56:44.397Z,3.90
2018-06-16T00:59:19.115Z,3.20
2018-06-16T01:01:49.043Z,4.30
2018-06-16T01:04:19.435Z,3.93
2018-06-16T01:06:50.554Z,4.17
2018-06-16T01:09:20.780Z,3.80
2018-06-16T01:11:49.944Z,3.50
2018-06-16T01:14:19.860Z,3.60
2018-06-16T01:16:49.835Z,3.60
2018-06-16T01:19:19.874Z,3.50
2018-06-16T01:21:49.867Z,3.70
2018-06-16T01:24:20.396Z,4.00
2018-06-16T01:26:54.303Z,3.80
2018-06-16T01:29:25.631Z,4.00
2018-06-16T01:31:55.431Z,3.53
2018-06-16T01:34:26.147Z,3.67
2018-06-16T01:36:56.181Z,3.57
2018-06-16T01:39:26.261Z,4.13
2018-06-16T01:42:01.416Z,3.57
2018-06-16T01:44:35.561Z,3.73
2018-06-16T01:47:07.111Z,3.60
2018-06-16T01:49:58.635Z,3.50
2018-06-16T01:52:28.470Z,3.33
2018-06-16T01:55:00.290Z,3.40
2018-06-16T01:57:32.171Z,4.13
2018-06-16T02:00:03.434Z,4.03
2018-06-16T02:02:35.667Z,3.20
2018-06-16T02:05:10.059Z,3.33
2018-06-16T02:07:42.478Z,3.60
2018-06-16T02:10:16.878Z,3.57
2018-06-16T02:12:47.016Z,4.10
2018-06-16T02:15:19.569Z,3.50
2018-06-16T02:17:51.673Z,3.27
2018-06-16T02:20:24.478Z,3.93
2018-06-16T02:22:59.127Z,3.73
2018-06-16T02:25:33.957Z,3.40
2018-06-16T02:28:04.827Z,4.30
2018-06-16T02:30:35.736Z,3.83
2018-06-16T02:33:07.697Z,3.60
2018-06-16T02:35:42.561Z,3.50
2018-06-16T02:38:14.588Z,3.63
2018-06-16T02:40:53.779Z,3.73
2018-06-16T02:43:26.093Z,2.97
2018-06-16T02:46:02.637Z,3.30
2018-06-16T02:48:33.287Z,3.00
2018-06-16T02:51:05.414Z,3.10
2018-06-16T02:53:38.237Z,2.97
2018-06-16T02:56:13.069Z,3.37
2018-06-16T02:58:45.632Z,2.93
2018-06-16T03:01:16.233Z,3.33
2018-06-16T03:03:48.814Z,3.33
2018-06-16T03:06:25.633Z,3.43
2018-06-16T03:08:57.086Z,3.13
2018-06-16T03:11:27.529Z,2.90
2018-06-16T03:13:58.316Z,3.00
2018-06-16T03:16:28.432Z,3.43
2018-06-16T03:18:58.762Z,3.27
2018-06-16T03:21:32.573Z,3.07
2018-06-16T03:24:01.780Z,3.23
2018-06-16T03:26:33.099Z,3.20
2018-06-16T03:29:12.897Z,3.63
2018-06-16T03:31:46.735Z,2.90
2018-06-16T03:34:18.011Z,3.03
2018-06-16T03:36:53.810Z,3.50
2018-06-16T03:39:25.697Z,3.10
2018-06-16T03:42:03.539Z,3.00
2018-06-16T03:44:33.955Z,3.10
2018-06-16T03:47:07.981Z,3.10
2018-06-16T03:49:39.669Z,2.80
2018-06-16T03:52:13.182Z,3.43
2018-06-16T03:54:44.655Z,2.97
2018-06-16T03:57:16.643Z,2.67
2018-06-16T03:59:46.766Z,3.07
2018-06-16T04:02:19.947Z,3.27
2018-06-16T04:05:03.911Z,3.00
2018-06-16T04:07:36.292Z,3.17
2018-06-16T04:10:08.058Z,3.13
2018-06-16T04:12:39.294Z,3.20
2018-06-16T04:15:31.515Z,2.97
2018-06-16T04:18:15.913Z,2.83
2018-06-16T04:20:48.613Z,3.27
2018-06-16T04:23:23.773Z,3.00
2018-06-16T04:25:55.557Z,3.53
2018-06-16T04:28:26.978Z,3.23
2018-06-16T04:30:57.314Z,3.20
2018-06-16T04:33:36.123Z,2.87
2018-06-16T04:36:08.850Z,3.20
2018-06-16T04:38:39.925Z,3.27
2018-06-16T04:41:10.945Z,3.30
2018-06-16T04:43:45.341Z,3.40
2018-06-16T04:46:19.921Z,3.60
2018-06-16T04:48:52.656Z,2.97
2018-06-16T04:51:31.387Z,3.30
2018-06-16T04:54:03.023Z,3.17
2018-06-16T04:56:36.642Z,3.03
2018-06-16T04:59:08.053Z,3.47
2018-06-16T05:01:42.157Z,3.10
2018-06-16T05:04:13.374Z,2.77
2018-06-16T05:06:44.463Z,3.20
2018-06-16T05:09:15.523Z,3.73
2018-06-16T05:11:46.179Z,3.30
2018-06-16T05:14:18.219Z,3.27
2018-06-16T05:16:50.793Z,3.40
2018-06-16T05:22:02.023Z,3.33
2018-06-16T05:24:35.784Z,3.37
2018-06-16T05:27:06.334Z,3.33
2018-06-16T05:29:37.362Z,3.63
2018-06-16T05:32:10.847Z,3.17
2018-06-16T05:34:44.947Z,3.57
2018-06-16T05:37:16.103Z,3.20
2018-06-16T05:39:48.584Z,3.07
2018-06-16T05:42:22.130Z,3.23
2018-06-16T05:44:55.788Z,3.20
2018-06-16T05:47:30.642Z,3.30
2018-06-16T05:50:01.479Z,3.40
2018-06-16T05:52:35.992Z,2.70
2018-06-16T05:55:10.287Z,3.27
2018-06-16T05:57:42.617Z,3.10
2018-06-16T06:00:13.800Z,3.20
2018-06-16T06:02:47.574Z,3.07
2018-06-16T06:05:19.077Z,3.10
2018-06-16T06:07:51.471Z,3.03
2018-06-16T06:10:21.625Z,3.00
2018-06-16T06:12:56.809Z,3.20
2018-06-16T06:15:28.666Z,3.03
2018-06-16T06:18:02.201Z,2.70
2018-06-16T06:20:33.323Z,3.40
2018-06-16T06:23:04.950Z,3.40
2018-06-16T06:25:39.926Z,3.33
2018-06-16T06:28:17.026Z,2.87
2018-06-16T06:30:48.174Z,3.30
2018-06-16T06:33:21.252Z,2.93
2018-06-16T06:35:56.490Z,3.33
2018-06-16T06:38:29.133Z,3.10
2018-06-16T06:41:00.817Z,2.90
2018-06-16T06:43:33.945Z,3.40
2018-06-16T06:46:05.776Z,3.27
2018-06-16T06:48:39.611Z,3.17
2018-06-16T06:51:10.092Z,3.10
2018-06-16T06:53:44.637Z,3.07
2018-06-16T06:56:15.035Z,2.77
2018-06-16T06:58:59.785Z,2.60
2018-06-16T07:01:29.983Z,3.20
2018-06-16T07:04:05.000Z,2.70
2018-06-16T07:06:38.786Z,2.97
2018-06-16T07:09:13.396Z,3.03
2018-06-16T07:11:43.252Z,2.67
2018-06-16T07:14:15.274Z,2.60
2018-06-16T07:16:48.123Z,2.40
2018-06-16T07:19:17.974Z,2.53
2018-06-16T07:21:50.126Z,2.40
2018-06-16T07:24:21.190Z,2.30
2018-06-16T07:26:55.297Z,2.23
2018-06-16T07:29:26.178Z,2.17
2018-06-16T07:31:56.054Z,2.30
2018-06-16T07:34:32.995Z,2.30
2018-06-16T07:37:03.777Z,2.70
2018-06-16T07:39:36.443Z,2.13
2018-06-16T07:42:07.865Z,1.90
2018-06-16T07:44:41.747Z,2.87
2018-06-16T07:47:14.370Z,2.10
2018-06-16T07:49:47.321Z,3.07
2018-06-16T07:52:19.975Z,2.80
2018-06-16T07:54:54.335Z,2.37
2018-06-16T07:57:29.810Z,2.30
2018-06-16T08:00:03.629Z,2.40
2018-06-16T08:02:35.642Z,1.90
2018-06-16T08:05:09.596Z,2.17
2018-06-16T08:07:47.445Z,2.23
2018-06-16T08:10:18.067Z,2.20
2018-06-16T08:12:49.893Z,2.10
2018-06-16T08:15:22.595Z,1.90
2018-06-16T08:20:43.436Z,2.00
2018-06-16T08:23:17.410Z,2.40
2018-06-16T08:25:51.088Z,2.20
2018-06-16T08:28:22.890Z,2.20
2018-06-16T08:30:56.239Z,2.20
2018-06-16T08:33:31.210Z,2.13
2018-06-16T08:36:04.976Z,2.27
2018-06-16T08:38:36.653Z,2.40
2018-06-16T08:41:10.708Z,2.00
2018-06-16T08:43:44.363Z,1.87
2018-06-16T08:46:15.388Z,2.30
2018-06-16T08:48:46.230Z,2.27
2018-06-16T08:51:21.779Z,2.37
2018-06-16T08:53:55.716Z,2.03
2018-06-16T08:56:26.890Z,2.50
2018-06-16T08:58:59.357Z,2.00
2018-06-16T09:01:42.446Z,1.87
2018-06-16T09:04:16.136Z,2.50
2018-06-16T09:06:49.140Z,2.60
2018-06-16T09:09:23.784Z,2.17
2018-06-16T09:12:05.741Z,2.07
2018-06-16T09:14:44.426Z,2.30
2018-06-16T09:17:20.081Z,2.70
2018-06-16T09:19:52.899Z,2.03
2018-06-16T09:22:24.803Z,1.70
2018-06-16T09:24:59.877Z,1.97
2018-06-16T09:27:35.145Z,2.10
2018-06-16T09:30:10.651Z,1.80
2018-06-16T09:32:43.477Z,2.20
2018-06-16T09:35:22.635Z,2.70
2018-06-16T09:37:54.302Z,2.10
2018-06-16T09:40:27.900Z,2.30
2018-06-16T09:43:02.171Z,2.10
2018-06-16T09:45:41.462Z,2.20
2018-06-16T09:48:18.923Z,2.20
2018-06-16T09:50:51.959Z,2.33
2018-06-16T09:53:24.951Z,1.90
2018-06-16T09:55:57.936Z,2.27
2018-06-16T09:58:31.565Z,2.10
2018-06-16T10:01:11.260Z,2.10
2018-06-16T10:03:48.462Z,2.60
2018-06-16T10:06:21.698Z,2.20
2018-06-16T10:09:04.044Z,1.97
2018-06-16T10:11:35.478Z,2.10
2018-06-16T10:14:10.613Z,1.80
2018-06-16T10:16:48.577Z,1.93
2018-06-16T10:19:24.356Z,1.97
2018-06-16T10:21:56.001Z,2.00
2018-06-16T10:24:28.390Z,2.00
2018-06-16T10:27:03.267Z,2.03
2018-06-16T10:29:34.475Z,1.90
2018-06-16T10:32:12.517Z,2.20
2018-06-16T10:34:44.719Z,2.07
2018-06-16T10:37:16.683Z,2.23
2018-06-16T10:39:51.271Z,1.80
2018-06-16T10:42:23.381Z,2.10
2018-06-16T10:44:57.938Z,2.80
2018-06-16T10:47:31.461Z,2.00
2018-06-16T10:50:11.631Z,2.00
2018-06-16T10:52:44.660Z,2.30
2018-06-16T10:55:24.988Z,2.40
2018-06-16T10:57:56.649Z,2.10
2018-06-16T11:00:33.118Z,2.10
2018-06-16T11:03:16.676Z,1.90
2018-06-16T11:05:53.824Z,1.80
2018-06-16T11:08:31.632Z,1.80
2018-06-16T11:11:05.082Z,1.70
2018-06-16T11:13:37.713Z,2.40
2018-06-16T11:16:11.468Z,2.57
2018-06-16T11:18:49.877Z,2.00
2018-06-16T11:21:20.836Z,2.27
2018-06-16T11:23:54.666Z,2.27
2018-06-16T11:26:30.007Z,1.83
2018-06-16T11:29:01.386Z,1.93
2018-06-16T11:31:40.014Z,1.93
2018-06-16T11:34:11.711Z,1.50
2018-06-16T11:36:46.024Z,1.83
2018-06-16T11:39:20.388Z,1.63
2018-06-16T11:41:57.857Z,1.50
2018-06-16T11:44:29.595Z,1.57
2018-06-16T11:47:04.863Z,1.87
2018-06-16T11:49:40.538Z,1.80
2018-06-16T11:52:15.973Z,1.60
2018-06-16T11:54:52.748Z,1.67
2018-06-16T11:57:29.114Z,1.40
2018-06-16T12:02:48.289Z,1.63
2018-06-16T12:05:20.697Z,1.77
2018-06-16T12:07:59.092Z,1.90
2018-06-16T12:10:31.167Z,1.77
2018-06-16T12:13:07.631Z,1.70
2018-06-16T12:15:44.575Z,1.73
2018-06-16T12:18:18.091Z,1.60
2018-06-16T12:20:51.575Z,2.20
2018-06-16T12:23:25.452Z,1.87
2018-06-16T12:26:02.369Z,2.70
2018-06-16T12:28:35.553Z,1.70
2018-06-16T12:31:20.716Z,1.77
2018-06-16T12:33:55.549Z,1.77
2018-06-16T12:36:29.928Z,1.50
2018-06-16T12:39:02.744Z,2.00
2018-06-16T12:44:15.291Z,1.80
2018-06-16T12:46:48.692Z,2.33
2018-06-16T12:49:26.336Z,2.20
2018-06-16T12:51:58.806Z,1.60
2018-06-16T12:54:43.411Z,1.90
2018-06-16T12:57:14.455Z,1.87
2018-06-16T12:59:46.488Z,1.93
2018-06-16T13:02:19.554Z,2.00
2018-06-16T13:04:56.258Z,1.63
2018-06-16T13:07:30.709Z,1.80
2018-06-16T13:10:04.220Z,1.80
2018-06-16T13:12:37.689Z,1.83
2018-06-16T13:15:15.343Z,1.80
2018-06-16T13:17:51.110Z,1.90
2018-06-16T13:20:24.997Z,1.93
2018-06-16T13:22:57.970Z,2.00
2018-06-16T13:25:32.390Z,1.93
2018-06-16T13:28:05.168Z,2.20
2018-06-16T13:30:39.783Z,1.70
2018-06-16T13:33:20.149Z,2.00
2018-06-16T13:35:53.546Z,2.07
2018-06-16T13:38:24.827Z,1.87
2018-06-16T13:40:59.716Z,1.70
2018-06-16T13:43:32.255Z,1.80
2018-06-16T13:46:09.605Z,1.90
2018-06-16T13:48:40.919Z,2.10
2018-06-16T13:53:54.679Z,2.10
2018-06-16T13:56:26.450Z,1.80
2018-06-16T13:59:00.497Z,1.97
2018-06-16T14:01:35.040Z,2.00
2018-06-16T14:04:07.562Z,1.70
2018-06-16T14:06:41.511Z,1.80
2018-06-16T14:09:15.370Z,1.70
2018-06-16T14:11:49.036Z,2.13
2018-06-16T14:14:23.972Z,2.00
2018-06-16T14:16:58.984Z,2.13
2018-06-16T14:19:32.484Z,1.90
2018-06-16T14:22:05.624Z,2.00
2018-06-16T14:24:39.747Z,2.07
2018-06-16T14:27:13.725Z,2.00
2018-06-16T14:29:48.877Z,2.37
2018-06-16T14:35:11.046Z,1.70
2018-06-16T14:40:30.375Z,1.73
2018-06-16T14:43:03.247Z,2.07
2018-06-16T14:45:36.585Z,1.73
2018-06-16T14:48:14.473Z,2.00
2018-06-16T14:50:45.361Z,1.70
2018-06-16T14:53:21.912Z,2.20
2018-06-16T14:55:58.641Z,2.73
2018-06-16T14:58:33.640Z,1.73
2018-06-16T15:01:11.614Z,1.77
2018-06-16T15:03:42.737Z,2.07
2018-06-16T15:06:19.709Z,2.10
2018-06-16T15:08:52.054Z,2.47
2018-06-16T15:11:25.279Z,2.43
2018-06-16T15:13:57.094Z,2.60
2018-06-16T15:16:29.547Z,2.87
2018-06-16T15:19:02.609Z,3.47
2018-06-16T15:21:39.151Z,2.13
2018-06-16T15:24:17.938Z,2.40
2018-06-16T15:26:54.897Z,2.50
2018-06-16T15:29:30.264Z,3.20
2018-06-16T15:32:04.805Z,2.50
2018-06-16T15:34:48.831Z,2.17
2018-06-16T15:37:24.222Z,2.40
2018-06-16T15:39:56.826Z,2.20
2018-06-16T15:42:32.393Z,2.27
2018-06-16T15:45:17.516Z,2.50
2018-06-16T15:47:50.463Z,2.50
2018-06-16T15:50:24.370Z,2.00
2018-06-16T15:52:58.709Z,2.37
2018-06-16T15:55:36.507Z,2.20
2018-06-16T15:58:10.844Z,2.00
2018-06-16T16:00:45.292Z,1.93
2018-06-16T16:03:23.763Z,2.40
2018-06-16T16:05:59.266Z,2.40
2018-06-16T16:08:35.886Z,2.40
2018-06-16T16:11:09.931Z,2.30
2018-06-16T16:13:55.761Z,2.37
2018-06-16T16:16:27.700Z,2.37
2018-06-16T16:18:58.900Z,2.23
2018-06-16T16:21:32.895Z,2.40
2018-06-16T16:24:05.902Z,2.60
2018-06-16T16:26:43.158Z,2.73
2018-06-16T16:29:20.068Z,2.30
2018-06-16T16:31:53.173Z,2.30
2018-06-16T16:34:29.758Z,2.10
2018-06-16T16:37:05.834Z,2.23
2018-06-16T16:39:41.099Z,2.43
2018-06-16T16:42:13.391Z,2.20
2018-06-16T16:44:46.762Z,2.30
2018-06-16T16:47:19.595Z,2.33
2018-06-16T16:49:54.859Z,2.20
2018-06-16T16:52:29.060Z,2.57
2018-06-16T16:55:04.279Z,2.17
2018-06-16T16:57:42.608Z,2.17
2018-06-16T17:00:14.502Z,2.50
2018-06-16T17:05:32.277Z,2.53
2018-06-16T17:08:04.961Z,2.67
2018-06-16T17:10:40.148Z,2.23
2018-06-16T17:13:14.905Z,2.30
2018-06-16T17:15:46.538Z,2.50
2018-06-16T17:18:27.352Z,2.27
2018-06-16T17:21:03.102Z,2.07
2018-06-16T17:23:36.768Z,2.27
2018-06-16T17:26:11.890Z,2.23
2018-06-16T17:28:49.638Z,2.50
2018-06-16T17:31:26.741Z,2.30
2018-06-16T17:34:02.372Z,2.40
2018-06-16T17:36:33.508Z,2.30
2018-06-16T17:39:09.873Z,3.90
2018-06-16T17:41:49.024Z,3.50
2018-06-16T17:44:27.979Z,3.67
2018-06-16T17:47:05.966Z,4.00
2018-06-16T17:49:38.946Z,4.27
2018-06-16T17:52:18.820Z,4.70
2018-06-16T17:54:54.306Z,3.67
2018-06-16T17:57:35.498Z,3.40
2018-06-16T18:00:11.184Z,3.00
2018-06-16T18:02:47.025Z,2.83
2018-06-16T18:05:31.736Z,2.53
2018-06-16T18:08:15.534Z,2.80
2018-06-16T18:10:52.710Z,3.03
2018-06-16T18:13:28.835Z,2.40
2018-06-16T18:16:16.698Z,2.80
2018-06-16T18:18:50.556Z,2.70
2018-06-16T18:21:28.138Z,2.70
2018-06-16T18:24:02.831Z,3.40
2018-06-16T18:26:40.652Z,3.50
2018-06-16T18:29:20.607Z,3.20
2018-06-16T18:31:52.883Z,3.70
2018-06-16T18:34:38.327Z,3.20
2018-06-16T18:37:13.657Z,2.83
2018-06-16T18:39:49.995Z,3.30
2018-06-16T18:42:26.017Z,3.80
2018-06-16T18:44:57.977Z,3.47
2018-06-16T18:47:30.893Z,2.97
2018-06-16T18:50:07.503Z,3.87
2018-06-16T18:52:42.869Z,3.50
2018-06-16T18:55:19.987Z,3.60
2018-06-16T18:57:58.729Z,3.50
2018-06-16T19:00:39.711Z,4.00
2018-06-16T19:03:16.129Z,4.47
2018-06-16T19:05:47.735Z,3.70
2018-06-16T19:08:20.766Z,4.03
2018-06-16T19:13:51.528Z,3.90
2018-06-16T19:16:26.900Z,4.50
2018-06-16T19:19:06.198Z,4.00
2018-06-16T19:21:42.933Z,4.27
2018-06-16T19:24:15.804Z,3.90
2018-06-16T19:27:02.836Z,4.13
2018-06-16T19:29:39.401Z,4.23
2018-06-16T19:32:12.982Z,4.30
2018-06-16T19:34:53.293Z,4.87
2018-06-16T19:37:27.153Z,4.83
2018-06-16T19:40:02.911Z,4.00
2018-06-16T19:42:35.282Z,5.07
2018-06-16T19:45:13.508Z,4.57
2018-06-16T19:47:47.207Z,4.20
2018-06-16T19:50:24.004Z,4.10
2018-06-16T19:52:58.434Z,4.53
2018-06-16T19:55:34.349Z,4.20
2018-06-16T20:03:42.513Z,4.83
2018-06-16T20:06:23.562Z,4.40
2018-06-16T20:08:56.600Z,4.57
2018-06-16T20:11:34.013Z,5.07
2018-06-16T20:14:12.544Z,4.80
2018-06-16T20:16:44.821Z,4.47
2018-06-16T20:19:22.862Z,4.53
2018-06-16T20:21:57.140Z,4.47
2018-06-16T20:24:34.427Z,4.13
2018-06-16T20:27:14.285Z,3.73
2018-06-16T20:29:48.882Z,4.50
2018-06-16T20:32:31.252Z,4.87
2018-06-16T20:35:06.957Z,3.97
2018-06-16T20:37:48.026Z,5.27
2018-06-16T20:40:24.451Z,5.57
2018-06-16T20:43:00.649Z,5.13
2018-06-16T20:46:39.677Z,4.60
2018-06-16T20:49:21.735Z,5.07
2018-06-16T20:52:01.494Z,4.20
2018-06-16T20:54:34.979Z,4.43
2018-06-16T20:57:13.819Z,4.87
2018-06-16T20:59:52.423Z,5.33
2018-06-16T21:02:30.797Z,6.77
2018-06-16T21:05:06.122Z,4.83
2018-06-16T21:07:40.865Z,4.13
2018-06-16T21:10:17.628Z,4.17
2018-06-16T21:12:49.630Z,4.00
2018-06-16T21:15:20.920Z,3.97
2018-06-16T21:17:57.947Z,4.07
2018-06-16T21:20:28.159Z,5.30
2018-06-16T21:23:03.446Z,4.80
2018-06-16T21:25:43.718Z,4.40
2018-06-16T21:28:17.477Z,4.13
2018-06-16T21:30:51.251Z,5.03
2018-06-16T21:33:31.080Z,5.03
2018-06-16T21:36:14.198Z,4.77
2018-06-16T21:38:53.818Z,4.83
2018-06-16T21:41:30.950Z,4.90
2018-06-16T21:44:07.620Z,4.47
2018-06-16T21:46:44.122Z,5.30
2018-06-16T21:49:20.179Z,5.33
2018-06-16T21:51:56.960Z,5.90
2018-06-16T21:57:04.965Z,4.70
2018-06-16T21:59:47.733Z,5.03
2018-06-16T22:02:28.066Z,4.87
2018-06-16T22:07:40.642Z,5.17
2018-06-16T22:10:13.447Z,5.67
2018-06-16T22:12:47.012Z,5.10
2018-06-16T22:15:20.725Z,5.10
2018-06-16T22:17:56.899Z,4.87
2018-06-16T22:20:27.752Z,5.17
2018-06-16T22:23:08.095Z,5.63
2018-06-16T22:25:40.251Z,4.90
2018-06-16T22:28:13.495Z,4.90
2018-06-16T22:30:46.750Z,5.33
2018-06-16T22:33:17.522Z,4.97
2018-06-16T22:35:49.788Z,5.23
2018-06-16T22:41:16.966Z,4.60
2018-06-16T22:43:52.549Z,5.07
2018-06-16T22:46:24.005Z,4.97
2018-06-16T22:48:55.703Z,5.33
2018-06-16T22:51:26.539Z,4.90
2018-06-16T22:54:03.199Z,4.60
2018-06-16T22:56:34.888Z,4.70
2018-06-16T22:59:07.054Z,5.53
2018-06-16T23:01:42.468Z,5.67
2018-06-16T23:04:15.382Z,4.77
2018-06-16T23:06:46.232Z,4.70
2018-06-16T23:09:17.779Z,4.87
2018-06-16T23:11:52.244Z,5.00
2018-06-16T23:14:22.789Z,4.70
2018-06-16T23:16:53.261Z,4.60
2018-06-16T23:19:23.582Z,5.00
2018-06-16T23:21:54.687Z,4.50
2018-06-16T23:24:26.115Z,5.13
2018-06-16T23:26:59.200Z,4.60
2018-06-16T23:29:32.816Z,4.63
2018-06-16T23:32:03.799Z,5.63
2018-06-16T23:34:37.844Z,5.60
2018-06-16T23:37:07.921Z,5.50
2018-06-16T23:39:39.552Z,5.10
2018-06-16T23:42:09.586Z,5.07
2018-06-16T23:44:39.932Z,5.50
2018-06-16T23:47:11.430Z,5.40
2018-06-16T23:49:41.822Z,4.93
2018-06-16T23:52:12.448Z,4.77
2018-06-16T23:54:42.416Z,4.77
2018-06-16T23:57:12.112Z,4.90
2018-06-16T23:59:42.867Z,5.00
